createdAt,value
2022-11-08T00:02:04.949Z,5.80
2022-11-08T00:04:38.192Z,5.80
2022-11-08T00:07:28.080Z,5.70
2022-11-08T00:10:20.328Z,5.70
2022-11-08T00:13:10.097Z,5.70
2022-11-08T00:15:39.532Z,5.70
2022-11-08T00:18:15.977Z,5.60
2022-11-08T00:20:45.672Z,5.60
2022-11-08T00:23:16.252Z,5.60
2022-11-08T00:25:43.602Z,5.60
2022-11-08T00:28:15.659Z,5.60
2022-11-08T00:30:53.970Z,5.50
2022-11-08T00:33:28.985Z,5.50
2022-11-08T00:35:59.803Z,5.50
2022-11-08T00:38:28.568Z,5.50
2022-11-08T00:41:01.121Z,5.40
2022-11-08T00:43:32.063Z,5.50
2022-11-08T00:46:01.888Z,5.50
2022-11-08T00:48:37.975Z,5.50
2022-11-08T00:51:10.883Z,5.40
2022-11-08T00:56:31.068Z,5.40
2022-11-08T00:59:00.115Z,5.40
2022-11-08T01:04:12.855Z,5.40
2022-11-08T01:06:42.760Z,5.30
2022-11-08T01:09:34.285Z,5.30
2022-11-08T01:12:01.666Z,5.20
2022-11-08T01:19:59.798Z,5.00
2022-11-08T01:27:52.717Z,5.00
2022-11-08T01:30:23.311Z,4.90
2022-11-08T01:32:52.930Z,4.90
2022-11-08T01:35:24.213Z,4.80
2022-11-08T01:37:53.961Z,4.80
2022-11-08T01:40:21.740Z,4.80
2022-11-08T01:42:51.769Z,4.90
2022-11-08T01:45:58.153Z,4.80
2022-11-08T01:48:28.120Z,4.80
2022-11-08T01:51:01.531Z,4.70
2022-11-08T01:53:38.709Z,4.80
2022-11-08T01:56:10.924Z,4.80
2022-11-08T01:58:41.764Z,4.70
2022-11-08T02:01:14.660Z,4.80
2022-11-08T02:06:27.960Z,4.70
2022-11-08T02:09:02.998Z,4.60
2022-11-08T02:11:41.603Z,4.50
2022-11-08T02:14:19.585Z,4.60
2022-11-08T02:16:50.243Z,4.50
2022-11-08T02:19:33.562Z,4.50
2022-11-08T02:22:15.320Z,4.40
2022-11-08T02:27:28.689Z,4.40
2022-11-08T02:30:04.784Z,4.40
2022-11-08T02:32:46.284Z,4.30
2022-11-08T02:35:18.923Z,4.30
2022-11-08T02:37:47.938Z,4.30
2022-11-08T02:40:15.777Z,4.30
2022-11-08T02:42:46.324Z,4.30
2022-11-08T02:45:13.948Z,4.30
2022-11-08T02:47:52.835Z,4.30
2022-11-08T02:50:23.065Z,4.20
2022-11-08T02:52:54.662Z,4.20
2022-11-08T02:55:25.170Z,4.20
2022-11-08T02:57:55.179Z,4.20
2022-11-08T03:00:25.474Z,4.10
2022-11-08T03:02:56.826Z,4.00
2022-11-08T03:05:29.717Z,4.10
2022-11-08T03:07:58.360Z,4.10
2022-11-08T03:13:13.109Z,4.00
2022-11-08T03:15:43.932Z,4.00
2022-11-08T03:18:13.847Z,4.00
2022-11-08T03:20:44.202Z,4.10
2022-11-08T03:25:53.542Z,3.90
2022-11-08T03:28:23.289Z,3.80
2022-11-08T03:30:53.222Z,3.80
2022-11-08T03:36:17.430Z,3.80
2022-11-08T03:38:48.742Z,3.80
2022-11-08T03:44:02.594Z,3.90
2022-11-08T03:46:33.142Z,3.80
2022-11-08T03:49:04.531Z,3.80
2022-11-08T03:51:34.391Z,3.80
2022-11-08T03:54:04.545Z,3.80
2022-11-08T03:56:35.575Z,3.80
2022-11-08T03:59:06.687Z,3.80
2022-11-08T04:01:38.452Z,3.70
2022-11-08T04:04:09.353Z,3.70
2022-11-08T04:06:39.102Z,3.70
2022-11-08T04:09:08.422Z,3.60
2022-11-08T04:11:59.404Z,3.70
2022-11-08T04:14:49.024Z,3.70
2022-11-08T04:17:18.518Z,3.60
2022-11-08T04:20:09.612Z,3.60
2022-11-08T04:22:40.265Z,3.60
2022-11-08T04:25:11.005Z,3.60
2022-11-08T04:27:38.600Z,3.60
2022-11-08T04:32:47.641Z,3.50
2022-11-08T04:40:45.798Z,3.40
2022-11-08T04:43:17.556Z,3.40
2022-11-08T04:48:30.834Z,3.30
2022-11-08T04:51:07.135Z,3.30
2022-11-08T04:53:35.275Z,3.30
2022-11-08T04:56:24.586Z,3.20
2022-11-08T04:58:59.102Z,3.20
2022-11-08T05:01:34.060Z,3.30
2022-11-08T05:04:11.600Z,3.20
2022-11-08T05:09:26.104Z,3.20
2022-11-08T05:14:39.233Z,3.40
2022-11-08T05:17:10.148Z,3.40
2022-11-08T05:19:58.379Z,3.50
2022-11-08T05:22:50.825Z,3.60
2022-11-08T05:25:18.561Z,3.70
2022-11-08T05:30:31.374Z,3.50
2022-11-08T05:33:06.980Z,3.60
2022-11-08T05:35:38.481Z,3.60
2022-11-08T05:38:20.517Z,3.70
2022-11-08T05:40:56.276Z,3.70
2022-11-08T05:43:24.519Z,3.80
2022-11-08T05:45:51.915Z,4.00
2022-11-08T05:48:23.001Z,4.10
2022-11-08T05:50:53.695Z,4.20
2022-11-08T05:53:27.881Z,4.30
2022-11-08T05:56:08.918Z,4.30
2022-11-08T05:58:40.733Z,4.50
2022-11-08T06:01:16.846Z,4.60
2022-11-08T06:03:52.199Z,4.60
2022-11-08T06:09:13.610Z,4.70
2022-11-08T06:11:43.168Z,4.70
2022-11-08T06:14:21.420Z,4.80
2022-11-08T06:16:53.650Z,4.80
2022-11-08T06:19:22.995Z,5.00
2022-11-08T06:21:52.446Z,4.90
2022-11-08T06:24:23.118Z,5.00
2022-11-08T06:26:54.023Z,5.00
2022-11-08T06:29:33.057Z,5.10
2022-11-08T06:32:11.246Z,5.20
2022-11-08T06:34:40.637Z,5.10
2022-11-08T06:37:11.323Z,5.10
2022-11-08T06:39:42.071Z,5.20
2022-11-08T06:42:09.914Z,5.20
2022-11-08T06:44:40.201Z,5.20
2022-11-08T06:47:11.228Z,5.20
2022-11-08T06:49:41.572Z,5.20
2022-11-08T06:52:12.193Z,5.20
2022-11-08T06:54:42.019Z,5.40
2022-11-08T06:57:12.476Z,5.40
2022-11-08T06:59:43.232Z,5.40
2022-11-08T07:02:15.050Z,5.30
2022-11-08T07:04:52.499Z,5.40
2022-11-08T07:07:24.597Z,5.40
2022-11-08T07:09:57.399Z,5.40
2022-11-08T07:12:31.992Z,5.40
2022-11-08T07:15:05.052Z,5.60
2022-11-08T07:17:38.552Z,5.70
2022-11-08T07:20:08.917Z,5.70
2022-11-08T07:22:38.443Z,5.70
2022-11-08T07:25:09.511Z,5.70
2022-11-08T07:27:39.741Z,5.70
2022-11-08T07:30:20.364Z,5.60
2022-11-08T07:32:50.326Z,5.60
2022-11-08T07:40:48.149Z,5.70
2022-11-08T07:43:20.099Z,5.70
2022-11-08T07:46:09.678Z,5.70
2022-11-08T07:49:04.025Z,5.80
2022-11-08T07:51:33.240Z,5.70
2022-11-08T07:54:05.666Z,5.80
2022-11-08T08:02:05.575Z,5.90
2022-11-08T08:04:40.632Z,6.00
2022-11-08T08:09:52.065Z,5.90
2022-11-08T08:12:25.478Z,5.90
2022-11-08T08:14:56.017Z,5.90
2022-11-08T08:17:33.186Z,5.90
2022-11-08T08:20:03.089Z,6.00
2022-11-08T08:22:32.804Z,6.10
2022-11-08T08:25:03.500Z,6.00
2022-11-08T08:27:33.792Z,6.00
2022-11-08T08:33:21.957Z,6.10
2022-11-08T08:38:28.976Z,6.20
2022-11-08T08:43:42.230Z,6.30
2022-11-08T08:46:13.156Z,6.20
2022-11-08T08:48:45.882Z,6.30
2022-11-08T08:53:58.900Z,6.20
2022-11-08T08:56:31.826Z,6.30
2022-11-08T09:01:45.369Z,6.40
2022-11-08T09:04:16.137Z,6.40
2022-11-08T09:09:29.772Z,6.50
2022-11-08T09:12:00.806Z,6.50
2022-11-08T09:14:37.279Z,6.60
2022-11-08T09:17:08.071Z,6.60
2022-11-08T09:19:54.390Z,6.60
2022-11-08T09:22:27.948Z,6.50
2022-11-08T09:24:56.909Z,6.50
2022-11-08T09:27:27.821Z,6.50
2022-11-08T09:30:00.044Z,6.50
2022-11-08T09:35:13.851Z,6.60
2022-11-08T09:41:08.267Z,6.60
2022-11-08T09:44:21.159Z,6.60
2022-11-08T09:46:58.014Z,6.70
2022-11-08T09:49:41.731Z,6.70
2022-11-08T09:52:33.697Z,6.70
2022-11-08T09:55:54.741Z,6.70
2022-11-08T10:01:46.733Z,6.70
2022-11-08T10:04:28.201Z,6.50
2022-11-08T10:07:23.425Z,6.70
2022-11-08T10:10:36.205Z,6.70
2022-11-08T10:17:11.067Z,6.50
2022-11-08T10:20:12.610Z,6.60
2022-11-08T10:23:20.880Z,6.70
2022-11-08T10:26:11.323Z,6.70
2022-11-08T10:28:59.265Z,6.80
2022-11-08T10:31:34.947Z,6.80
2022-11-08T10:37:15.593Z,6.90
2022-11-08T10:40:00.511Z,6.80
2022-11-08T10:42:48.705Z,6.80
2022-11-08T10:45:16.865Z,6.70
2022-11-08T10:47:46.405Z,6.70
2022-11-08T10:50:51.445Z,6.70
2022-11-08T10:53:35.603Z,6.90
2022-11-08T10:58:54.925Z,6.90
2022-11-08T11:01:28.183Z,7.00
2022-11-08T11:09:28.290Z,6.90
2022-11-08T11:12:05.686Z,6.80
2022-11-08T11:14:39.860Z,6.80
2022-11-08T11:17:40.335Z,6.90
2022-11-08T11:20:23.350Z,7.10
2022-11-08T11:25:38.326Z,6.90
2022-11-08T11:28:09.184Z,6.90
2022-11-08T11:30:41.809Z,7.10
2022-11-08T11:33:36.987Z,7.00
2022-11-08T11:36:31.324Z,7.10
2022-11-08T11:39:38.004Z,7.20
2022-11-08T11:42:50.163Z,7.20
2022-11-08T11:45:44.300Z,7.10
2022-11-08T11:48:42.919Z,7.20
2022-11-08T11:51:21.109Z,7.20
2022-11-08T11:53:58.459Z,7.20
2022-11-08T11:56:56.168Z,7.20
2022-11-08T12:03:41.926Z,7.30
2022-11-08T12:06:48.002Z,7.30
2022-11-08T12:09:33.692Z,7.30
2022-11-08T12:12:34.365Z,7.30
2022-11-08T12:15:50.031Z,7.30
2022-11-08T12:18:56.900Z,7.50
2022-11-08T12:22:09.866Z,7.50
2022-11-08T12:25:12.205Z,7.30
2022-11-08T12:28:27.993Z,7.20
2022-11-08T12:31:41.307Z,7.30
2022-11-08T12:34:39.715Z,7.40
2022-11-08T12:37:41.827Z,7.50
2022-11-08T12:41:06.830Z,7.50
2022-11-08T12:44:12.579Z,7.60
2022-11-08T12:47:21.208Z,7.50
2022-11-08T12:50:34.862Z,7.60
2022-11-08T12:53:50.966Z,7.60
2022-11-08T12:59:45.157Z,7.50
2022-11-08T13:02:35.935Z,7.60
2022-11-08T13:05:33.938Z,7.60
2022-11-08T13:08:34.852Z,7.60
2022-11-08T13:11:22.295Z,7.60
2022-11-08T13:13:59.106Z,7.70
2022-11-08T13:16:47.737Z,7.80
2022-11-08T13:19:52.300Z,7.80
2022-11-08T13:22:44.331Z,7.80
2022-11-08T13:25:13.978Z,7.80
2022-11-08T13:27:45.286Z,7.70
2022-11-08T13:30:16.484Z,7.60
2022-11-08T13:33:10.533Z,7.50
2022-11-08T13:39:39.393Z,7.70
2022-11-08T13:42:23.566Z,7.70
2022-11-08T13:45:33.637Z,7.80
2022-11-08T13:48:35.088Z,7.70
2022-11-08T13:51:43.158Z,7.70
2022-11-08T13:54:52.762Z,7.80
2022-11-08T13:58:10.613Z,7.80
2022-11-08T14:00:52.690Z,7.80
2022-11-08T14:03:52.985Z,7.70
2022-11-08T14:10:46.383Z,7.90
2022-11-08T14:13:41.019Z,7.80
2022-11-08T14:16:16.066Z,7.90
2022-11-08T14:18:46.590Z,7.90
2022-11-08T14:21:21.377Z,7.90
2022-11-08T14:23:51.261Z,7.90
2022-11-08T14:26:23.247Z,7.90
2022-11-08T14:29:01.069Z,7.90
2022-11-08T14:31:37.682Z,7.80
2022-11-08T14:34:28.640Z,7.80
2022-11-08T14:37:36.762Z,7.80
2022-11-08T14:40:20.764Z,7.80
2022-11-08T14:42:53.854Z,7.70
2022-11-08T14:45:29.359Z,7.80
2022-11-08T14:48:18.452Z,7.80
2022-11-08T14:50:47.480Z,7.90
2022-11-08T14:54:03.414Z,7.80
2022-11-08T14:56:45.525Z,7.90
2022-11-08T14:59:25.229Z,7.80
2022-11-08T15:02:01.961Z,7.70
2022-11-08T15:04:40.300Z,7.70
2022-11-08T15:07:13.702Z,7.90
2022-11-08T15:09:42.889Z,7.90
2022-11-08T15:12:26.213Z,7.90
2022-11-08T15:15:06.100Z,7.90
2022-11-08T15:17:41.663Z,8.00
2022-11-08T15:20:24.214Z,8.00
2022-11-08T15:22:58.333Z,7.90
2022-11-08T15:25:35.791Z,7.90
2022-11-08T15:28:29.150Z,7.90
2022-11-08T15:31:29.714Z,8.00
2022-11-08T15:34:01.147Z,7.90
2022-11-08T15:36:41.690Z,7.90
2022-11-08T15:40:03.373Z,7.90
2022-11-08T15:43:03.553Z,8.00
2022-11-08T15:45:35.831Z,7.90
2022-11-08T15:48:43.482Z,8.00
2022-11-08T15:51:18.607Z,8.00
2022-11-08T15:54:03.134Z,8.00
2022-11-08T15:56:37.147Z,7.90
2022-11-08T15:59:21.641Z,7.90
2022-11-08T16:01:58.696Z,7.90
2022-11-08T16:04:34.210Z,7.90
2022-11-08T16:07:09.081Z,7.90
2022-11-08T16:09:41.860Z,7.90
2022-11-08T16:12:18.862Z,7.90
2022-11-08T16:14:59.832Z,7.70
2022-11-08T16:17:35.958Z,7.70
2022-11-08T16:38:39.206Z,7.80
2022-11-08T16:41:25.049Z,7.80
2022-11-08T16:43:57.116Z,7.80
2022-11-08T16:46:33.314Z,7.70
2022-11-08T16:49:09.060Z,7.80
2022-11-08T16:51:49.671Z,7.80
2022-11-08T16:54:26.150Z,7.90
2022-11-08T16:57:34.072Z,8.00
2022-11-08T17:03:05.612Z,8.00
2022-11-08T17:08:46.880Z,7.90
2022-11-08T17:11:31.341Z,7.90
2022-11-08T17:14:12.716Z,7.80
2022-11-08T17:16:48.233Z,7.90
2022-11-08T17:19:35.691Z,7.90
2022-11-08T17:22:08.042Z,7.90
2022-11-08T17:24:42.973Z,7.90
2022-11-08T17:30:03.316Z,8.00
2022-11-08T17:32:43.396Z,8.00
2022-11-08T17:35:19.843Z,7.90
2022-11-08T17:37:59.844Z,7.90
2022-11-08T17:40:33.932Z,8.00
2022-11-08T17:43:04.357Z,8.00
2022-11-08T17:48:23.948Z,8.00
2022-11-08T17:50:55.378Z,7.90
2022-11-08T17:53:27.765Z,7.90
2022-11-08T18:06:37.839Z,8.10
2022-11-08T18:09:24.904Z,8.00
2022-11-08T18:11:59.038Z,8.00
2022-11-08T18:14:39.412Z,8.00
2022-11-08T18:17:11.740Z,8.00
2022-11-08T18:19:45.588Z,8.00
2022-11-08T18:22:32.280Z,7.90
2022-11-08T18:25:09.076Z,7.90
2022-11-08T18:27:54.814Z,7.80
2022-11-08T18:30:31.891Z,7.80
2022-11-08T18:35:56.406Z,7.90
2022-11-08T18:38:29.265Z,7.90
2022-11-08T18:45:35.357Z,8.00
2022-11-08T18:51:09.046Z,8.00
2022-11-08T18:53:49.825Z,8.00
2022-11-08T18:59:17.362Z,7.90
2022-11-08T19:04:49.697Z,7.90
2022-11-08T19:07:21.330Z,7.90
2022-11-08T19:10:02.749Z,7.80
2022-11-08T19:12:35.669Z,7.80
2022-11-08T19:15:10.951Z,7.90
2022-11-08T19:17:52.199Z,8.00
2022-11-08T19:20:26.823Z,8.00
2022-11-08T19:22:59.432Z,8.00
2022-11-08T19:25:34.235Z,8.00
2022-11-08T19:28:06.014Z,8.00
2022-11-08T19:30:38.994Z,8.10
2022-11-08T19:36:16.742Z,8.00
2022-11-08T19:39:17.094Z,8.00
2022-11-08T19:41:47.989Z,7.90
2022-11-08T19:44:30.518Z,8.00
2022-11-08T19:49:47.570Z,8.10
2022-11-08T19:52:24.748Z,8.10
2022-11-08T19:55:07.884Z,8.10
2022-11-08T20:00:28.149Z,8.10
2022-11-08T20:03:24.712Z,8.20
2022-11-08T20:05:59.860Z,8.10
2022-11-08T20:11:28.398Z,8.10
2022-11-08T20:14:17.428Z,8.20
2022-11-08T20:17:07.868Z,8.20
2022-11-08T20:22:37.434Z,8.10
2022-11-08T20:25:09.431Z,8.10
2022-11-08T20:27:44.958Z,8.20
2022-11-08T20:30:24.364Z,8.10
2022-11-08T20:32:59.064Z,8.10
2022-11-08T20:35:31.400Z,8.10
2022-11-08T20:38:06.070Z,8.10
2022-11-08T20:40:38.650Z,8.10
2022-11-08T20:43:14.930Z,8.20
2022-11-08T20:48:30.850Z,8.10
2022-11-08T20:51:12.452Z,8.00
2022-11-08T20:53:54.716Z,8.00
2022-11-08T20:56:28.529Z,8.00
2022-11-08T20:59:32.507Z,8.10
2022-11-08T21:02:14.143Z,8.10
2022-11-08T21:04:53.218Z,8.10
2022-11-08T21:10:41.635Z,8.10
2022-11-08T21:16:52.610Z,8.20
2022-11-08T21:19:11.566Z,8.20
2022-11-08T21:21:41.373Z,8.10
2022-11-08T21:26:55.033Z,8.10
2022-11-08T21:29:26.010Z,8.20
2022-11-08T21:37:41.192Z,8.10
2022-11-08T21:40:12.008Z,8.20
2022-11-08T21:42:52.232Z,8.20
2022-11-08T21:45:27.245Z,8.10
2022-11-08T21:50:50.118Z,8.00
2022-11-08T21:53:18.673Z,8.00
2022-11-08T21:56:08.170Z,8.00
2022-11-08T21:58:43.713Z,8.00
2022-11-08T22:01:15.127Z,8.00
2022-11-08T22:03:43.318Z,8.00
2022-11-08T22:06:14.184Z,8.10
2022-11-08T22:11:26.368Z,8.10
2022-11-08T22:14:20.724Z,8.10
2022-11-08T22:16:51.241Z,8.10
2022-11-08T22:19:22.002Z,8.00
2022-11-08T22:22:06.695Z,8.10
2022-11-08T22:24:46.959Z,8.00
2022-11-08T22:30:16.690Z,8.10
2022-11-08T22:32:48.961Z,8.10
2022-11-08T22:35:23.656Z,8.00
2022-11-08T22:37:55.703Z,8.00
2022-11-08T22:40:28.217Z,8.00
2022-11-08T22:42:59.149Z,7.90
2022-11-08T22:45:29.905Z,7.90
2022-11-08T22:50:47.761Z,8.00
2022-11-08T22:53:20.745Z,8.00
2022-11-08T22:55:51.065Z,8.00
2022-11-08T23:01:15.008Z,8.00
2022-11-08T23:03:58.003Z,8.00
2022-11-08T23:06:27.761Z,8.00
2022-11-08T23:09:01.496Z,8.00
2022-11-08T23:11:51.898Z,8.00
2022-11-08T23:14:44.047Z,8.00
2022-11-08T23:17:19.303Z,8.00
2022-11-08T23:20:09.022Z,8.00
2022-11-08T23:23:07.168Z,8.10
2022-11-08T23:28:39.404Z,8.10
2022-11-08T23:31:46.396Z,8.00
2022-11-08T23:34:15.969Z,7.90
2022-11-08T23:36:49.171Z,7.90
2022-11-08T23:39:21.284Z,8.00
2022-11-08T23:44:52.713Z,8.00
2022-11-08T23:47:31.671Z,7.90
2022-11-08T23:50:04.200Z,7.90
2022-11-08T23:55:16.808Z,7.90
